Time;durP1;ratioP1;P1;durP2;ratioP2;P2;SDS_P1;SDS_P2;PMS_P1;PMS_P2;Temp;Humidity;BMP_temperature;BMP_pressure;BME280_temperature;BME280_humidity;BME280_pressure;Samples;Min_cycle;Max_cycle;Signal;HPM_P1;HPM_P2
2023/11/24 00:00:54;;;;;;;;;;;9.20;99.90;;;;;;8396780;28;19928;-72
2023/11/24 00:04:56;;;;;;;;;;;9.20;99.90;;;;;;8361178;28;19972;-71
2023/11/24 00:08:58;;;;;;;;;;;9.10;99.90;;;;;;8397947;28;19925;-71
2023/11/24 00:12:59;;;;;;;;;;;9.10;99.90;;;;;;8382074;28;19939;-71
2023/11/24 00:17:01;;;;;;;;;;;9.10;99.90;;;;;;8378945;28;19931;-70
2023/11/24 00:21:06;;;;;;;;;;;9.10;99.90;;;;;;8394486;28;19963;-71
2023/11/24 00:25:12;;;;;;;;;;;9.10;99.90;;;;;;8385418;28;20565;-71
2023/11/24 00:29:15;;;;;;;;;;;9.10;99.90;;;;;;8359580;28;20026;-70
2023/11/24 00:33:18;;;;;;;;;;;9.20;99.90;;;;;;8371592;28;19929;-71
2023/11/24 00:37:21;;;;;;;;;;;9.10;99.90;;;;;;8364288;28;19967;-71
2023/11/24 00:41:23;;;;;;;;;;;9.10;99.90;;;;;;8381769;28;20680;-71
2023/11/24 00:45:25;;;;;;;;;;;9.10;99.90;;;;;;8377578;28;20257;-70
2023/11/24 00:49:27;;;;;;;;;;;9.10;99.90;;;;;;8366480;28;19934;-70
2023/11/24 00:53:28;;;;;;;;;;;9.10;99.90;;;;;;8384719;28;19924;-71
2023/11/24 00:57:30;;;;;;;;;;;9.10;99.90;;;;;;8380263;28;20348;-70
2023/11/24 01:01:32;;;;;;;;;;;9.10;99.90;;;;;;8378955;28;19925;-71
2023/11/24 01:05:34;;;;;;;;;;;9.10;99.90;;;;;;8386990;28;20445;-70
2023/11/24 01:09:35;;;;;;;;;;;9.00;99.90;;;;;;8359879;28;20351;-71
2023/11/24 01:13:38;;;;;;;;;;;9.00;99.90;;;;;;8381875;28;19928;-70
2023/11/24 01:17:40;;;;;;;;;;;8.90;99.90;;;;;;8375983;28;19975;-71
2023/11/24 01:21:42;;;;;;;;;;;8.90;99.90;;;;;;8385557;28;19964;-70
2023/11/24 01:25:43;;;;;;;;;;;8.90;99.90;;;;;;8384553;28;20354;-71
2023/11/24 01:29:45;;;;;;;;;;;8.80;99.90;;;;;;8387540;28;19925;-71
2023/11/24 01:33:47;;;;;;;;;;;8.80;99.90;;;;;;8387153;28;20384;-70
2023/11/24 01:37:48;;;;;;;;;;;8.80;99.90;;;;;;8349147;28;19928;-71
2023/11/24 01:46:54;;;;;;;;;;;8.70;99.90;;;;;;8377142;28;19971;-70
2023/11/24 01:50:56;;;;;;;;;;;8.70;99.90;;;;;;8377527;28;19928;-70
2023/11/24 01:54:57;;;;;;;;;;;8.70;99.90;;;;;;8376697;28;19939;-70
2023/11/24 01:58:59;;;;;;;;;;;8.70;99.90;;;;;;8356641;28;20388;-70
2023/11/24 02:03:01;;;;;;;;;;;8.70;99.90;;;;;;8387706;28;19935;-70
2023/11/24 02:07:03;;;;;;;;;;;8.70;99.90;;;;;;8372522;28;19936;-71
2023/11/24 02:11:05;;;;;;;;;;;8.80;99.90;;;;;;8375137;28;19928;-71
2023/11/24 02:15:07;;;;;;;;;;;8.80;99.90;;;;;;8377743;28;19929;-70
2023/11/24 02:19:09;;;;;;;;;;;8.80;99.90;;;;;;8378678;28;19974;-71
2023/11/24 02:23:11;;;;;;;;;;;8.80;99.90;;;;;;8379835;28;19924;-70
2023/11/24 02:27:13;;;;;;;;;;;8.80;99.90;;;;;;8381254;28;19924;-70
2023/11/24 02:31:16;;;;;;;;;;;8.80;99.90;;;;;;8375841;28;19940;-71
2023/11/24 02:35:18;;;;;;;;;;;8.80;99.90;;;;;;8373155;28;20316;-70
2023/11/24 02:39:20;;;;;;;;;;;8.80;99.90;;;;;;8380704;28;19931;-70
2023/11/24 02:43:22;;;;;;;;;;;8.70;99.90;;;;;;8370440;28;20360;-71
2023/11/24 02:47:24;;;;;;;;;;;8.70;99.90;;;;;;8379146;28;20380;-71
2023/11/24 02:51:25;;;;;;;;;;;8.60;99.90;;;;;;8378920;28;20362;-70
2023/11/24 02:55:27;;;;;;;;;;;8.60;99.90;;;;;;8393391;28;19934;-71
2023/11/24 02:59:29;;;;;;;;;;;8.50;99.90;;;;;;8382728;28;20326;-70
2023/11/24 03:03:31;;;;;;;;;;;8.40;99.90;;;;;;8363521;28;19933;-70
2023/11/24 03:07:34;;;;;;;;;;;8.30;99.90;;;;;;8387033;28;19924;-70
2023/11/24 03:11:36;;;;;;;;;;;8.20;99.90;;;;;;8377608;28;19928;-71
2023/11/24 03:15:39;;;;;;;;;;;8.10;99.90;;;;;;8376418;28;19955;-70
2023/11/24 03:19:41;;;;;;;;;;;8.00;99.90;;;;;;8383994;28;19924;-71
2023/11/24 03:23:42;;;;;;;;;;;8.00;99.90;;;;;;8381986;28;19928;-71
2023/11/24 03:27:44;;;;;;;;;;;8.00;99.90;;;;;;8396293;28;19940;-70
2023/11/24 03:31:46;;;;;;;;;;;8.00;99.90;;;;;;8378608;28;20278;-71
2023/11/24 03:35:47;;;;;;;;;;;7.90;99.90;;;;;;8376582;28;19960;-70
2023/11/24 03:39:49;;;;;;;;;;;7.90;99.90;;;;;;8390545;28;19925;-70
2023/11/24 03:43:51;;;;;;;;;;;7.90;99.90;;;;;;8389992;28;19924;-71
2023/11/24 03:47:52;;;;;;;;;;;7.90;99.90;;;;;;8384036;28;19924;-70
2023/11/24 03:51:54;;;;;;;;;;;7.90;99.90;;;;;;8389928;28;19932;-71
2023/11/24 03:55:55;;;;;;;;;;;7.80;99.90;;;;;;8389997;28;19929;-71
2023/11/24 03:59:57;;;;;;;;;;;7.80;99.90;;;;;;8394229;28;19924;-71
2023/11/24 04:04:00;;;;;;;;;;;7.80;99.90;;;;;;8395495;28;19924;-71
2023/11/24 04:08:02;;;;;;;;;;;7.80;99.90;;;;;;8395722;28;19928;-70
2023/11/24 04:12:03;;;;;;;;;;;7.80;99.90;;;;;;8374838;28;19925;-70
2023/11/24 04:16:06;;;;;;;;;;;7.80;99.90;;;;;;8387365;28;20287;-71
2023/11/24 04:20:09;;;;;;;;;;;7.70;99.90;;;;;;8391837;28;19947;-70
2023/11/24 04:24:11;;;;;;;;;;;7.70;99.90;;;;;;8396663;28;20423;-71
2023/11/24 04:28:16;;;;;;;;;;;7.70;99.90;;;;;;8393397;28;19925;-71
2023/11/24 04:32:20;;;;;;;;;;;7.60;99.90;;;;;;8392510;28;19924;-71
2023/11/24 04:36:22;;;;;;;;;;;7.60;99.90;;;;;;8378041;28;19936;-71
2023/11/24 04:40:24;;;;;;;;;;;7.60;99.90;;;;;;8376793;28;19979;-70
2023/11/24 04:44:26;;;;;;;;;;;7.60;99.90;;;;;;8380234;28;19935;-70
2023/11/24 04:48:27;;;;;;;;;;;7.60;99.90;;;;;;8369812;28;19933;-71
2023/11/24 04:52:29;;;;;;;;;;;7.60;99.90;;;;;;8381324;28;20575;-71
2023/11/24 04:56:31;;;;;;;;;;;7.50;99.90;;;;;;8359895;28;19928;-71
2023/11/24 05:00:32;;;;;;;;;;;7.40;99.90;;;;;;8381379;28;19935;-71
2023/11/24 05:04:36;;;;;;;;;;;7.40;99.90;;;;;;8375658;28;19932;-70
2023/11/24 05:08:39;;;;;;;;;;;7.30;99.90;;;;;;8378194;28;19924;-71
2023/11/24 05:12:40;;;;;;;;;;;7.30;99.90;;;;;;8357611;28;19932;-71
2023/11/24 05:16:42;;;;;;;;;;;7.30;99.90;;;;;;8372181;28;19929;-71
2023/11/24 05:20:44;;;;;;;;;;;7.30;99.90;;;;;;8372889;28;19946;-71
2023/11/24 05:24:46;;;;;;;;;;;7.40;99.90;;;;;;8372867;28;19932;-71
2023/11/24 05:28:47;;;;;;;;;;;7.40;99.90;;;;;;8366044;28;19925;-71
2023/11/24 05:32:49;;;;;;;;;;;7.40;99.90;;;;;;8359550;28;20373;-70
2023/11/24 05:36:51;;;;;;;;;;;7.40;99.90;;;;;;8376959;28;19986;-71
2023/11/24 05:40:53;;;;;;;;;;;7.30;99.90;;;;;;8352612;28;20334;-71
2023/11/24 05:44:55;;;;;;;;;;;7.30;99.90;;;;;;8359671;28;19931;-71
2023/11/24 05:48:56;;;;;;;;;;;7.30;99.90;;;;;;8357279;28;20351;-71
2023/11/24 05:52:58;;;;;;;;;;;7.40;99.90;;;;;;8375597;28;19933;-71
2023/11/24 05:56:59;;;;;;;;;;;7.40;99.90;;;;;;8371830;28;20285;-71
2023/11/24 06:01:01;;;;;;;;;;;7.30;99.90;;;;;;8380789;28;19931;-71
2023/11/24 06:05:04;;;;;;;;;;;7.20;99.90;;;;;;8377554;28;19955;-71
2023/11/24 06:09:06;;;;;;;;;;;7.20;99.90;;;;;;8376174;28;20384;-71
2023/11/24 06:13:08;;;;;;;;;;;7.20;99.90;;;;;;8362715;28;19925;-70
2023/11/24 06:17:11;;;;;;;;;;;7.20;99.90;;;;;;8371907;28;19933;-71
2023/11/24 06:21:13;;;;;;;;;;;7.10;99.90;;;;;;8375006;28;19931;-70
2023/11/24 06:25:14;;;;;;;;;;;7.00;99.90;;;;;;8375275;28;20022;-71
2023/11/24 06:29:17;;;;;;;;;;;6.90;99.90;;;;;;8370769;28;20273;-70
2023/11/24 06:33:19;;;;;;;;;;;6.90;99.90;;;;;;8383826;28;20285;-71
2023/11/24 06:37:21;;;;;;;;;;;6.90;99.90;;;;;;8390034;28;19939;-72
2023/11/24 06:41:23;;;;;;;;;;;6.80;99.90;;;;;;8362705;28;19931;-71
2023/11/24 06:45:25;;;;;;;;;;;6.80;99.90;;;;;;8372210;28;19925;-71
2023/11/24 06:49:29;;;;;;;;;;;6.70;99.90;;;;;;8389548;28;19940;-71
2023/11/24 06:53:31;;;;;;;;;;;6.70;99.90;;;;;;8358180;28;19929;-71
2023/11/24 06:57:33;;;;;;;;;;;6.60;99.90;;;;;;8375974;28;19933;-70
2023/11/24 07:01:35;;;;;;;;;;;6.60;99.90;;;;;;8374011;28;19986;-71
2023/11/24 07:05:37;;;;;;;;;;;6.60;99.90;;;;;;8377441;28;19925;-71
2023/11/24 07:09:39;;;;;;;;;;;6.50;99.90;;;;;;8359637;28;19983;-71
2023/11/24 07:13:41;;;;;;;;;;;6.50;99.90;;;;;;8374258;28;19931;-71
2023/11/24 07:17:43;;;;;;;;;;;6.50;99.90;;;;;;8379780;28;20387;-71
2023/11/24 07:21:45;;;;;;;;;;;6.50;99.90;;;;;;8373347;28;19935;-71
2023/11/24 07:25:47;;;;;;;;;;;6.60;99.90;;;;;;8382465;28;19925;-71
2023/11/24 07:29:48;;;;;;;;;;;6.60;99.90;;;;;;8392885;28;19932;-72
2023/11/24 07:33:50;;;;;;;;;;;6.70;99.90;;;;;;8390562;28;19925;-71
2023/11/24 07:37:52;;;;;;;;;;;6.70;99.90;;;;;;8356674;28;19925;-71
2023/11/24 07:41:54;;;;;;;;;;;6.80;99.90;;;;;;8381145;28;19924;-70
2023/11/24 07:45:55;;;;;;;;;;;6.70;99.90;;;;;;8371624;28;19986;-71
2023/11/24 07:49:57;;;;;;;;;;;6.60;99.90;;;;;;8388936;28;19931;-71
2023/11/24 07:53:59;;;;;;;;;;;6.50;99.90;;;;;;8380121;28;19928;-71
2023/11/24 07:58:01;;;;;;;;;;;6.40;99.90;;;;;;8383898;28;19925;-71
2023/11/24 08:02:02;;;;;;;;;;;6.50;99.90;;;;;;8376521;28;20011;-71
2023/11/24 08:06:07;;;;;;;;;;;6.50;99.90;;;;;;8374142;28;20512;-71
2023/11/24 08:10:08;;;;;;;;;;;6.50;99.90;;;;;;8372177;28;19986;-71
2023/11/24 08:14:10;;;;;;;;;;;6.40;99.90;;;;;;8381898;28;19939;-71
2023/11/24 08:18:12;;;;;;;;;;;6.40;99.90;;;;;;8378467;28;19924;-71
2023/11/24 08:22:13;;;;;;;;;;;6.40;99.90;;;;;;8373825;28;19977;-71
2023/11/24 08:26:18;;;;;;;;;;;6.50;99.90;;;;;;8383320;28;19925;-71
2023/11/24 08:30:20;;;;;;;;;;;6.50;99.90;;;;;;8405469;28;19994;-71
2023/11/24 08:34:22;;;;;;;;;;;6.60;99.90;;;;;;8389897;28;20324;-70
2023/11/24 08:38:24;;;;;;;;;;;6.60;99.90;;;;;;8369524;28;19925;-70
2023/11/24 08:42:25;;;;;;;;;;;6.50;99.90;;;;;;8364794;28;20261;-71
2023/11/24 08:46:27;;;;;;;;;;;6.50;99.90;;;;;;8393729;28;19959;-71
2023/11/24 08:50:29;;;;;;;;;;;6.60;99.90;;;;;;8393759;28;19950;-70
2023/11/24 08:54:31;;;;;;;;;;;6.60;99.90;;;;;;8384015;28;19929;-71
2023/11/24 08:58:32;;;;;;;;;;;6.60;99.90;;;;;;8389423;28;19983;-70
2023/11/24 09:02:34;;;;;;;;;;;6.50;99.90;;;;;;8363771;28;19924;-70
2023/11/24 09:06:36;;;;;;;;;;;6.50;99.90;;;;;;8386612;28;20152;-70
2023/11/24 09:10:38;;;;;;;;;;;6.50;99.90;;;;;;8391126;28;19924;-71
2023/11/24 09:14:40;;;;;;;;;;;6.60;99.90;;;;;;8375169;28;19928;-70
2023/11/24 09:18:42;;;;;;;;;;;6.80;99.90;;;;;;8394168;28;19924;-72
2023/11/24 09:22:44;;;;;;;;;;;7.10;99.90;;;;;;8381452;28;19924;-72
2023/11/24 09:26:46;;;;;;;;;;;7.30;99.90;;;;;;8372059;28;19978;-71
2023/11/24 09:30:47;;;;;;;;;;;7.50;99.90;;;;;;8378311;28;19994;-71
2023/11/24 09:34:51;;;;;;;;;;;7.50;99.90;;;;;;8373687;28;20621;-71
2023/11/24 09:38:52;;;;;;;;;;;7.40;99.90;;;;;;8384554;28;19928;-72
2023/11/24 09:42:54;;;;;;;;;;;7.50;99.90;;;;;;8385254;28;19932;-72
2023/11/24 09:46:57;;;;;;;;;;;7.60;99.90;;;;;;8383640;28;20291;-71
2023/11/24 09:51:00;;;;;;;;;;;7.40;99.90;;;;;;8372343;28;20706;-71
2023/11/24 09:55:04;;;;;;;;;;;7.00;99.90;;;;;;8382630;28;19932;-71
2023/11/24 09:59:08;;;;;;;;;;;6.70;99.90;;;;;;8393329;28;19925;-71
2023/11/24 10:03:11;;;;;;;;;;;6.50;99.90;;;;;;8381164;28;19931;-71
2023/11/24 10:07:20;;;;;;;;;;;6.50;99.90;;;;;;8383225;28;19982;-71
2023/11/24 10:11:28;;;;;;;;;;;6.50;99.90;;;;;;8376407;28;19933;-72
2023/11/24 10:15:30;;;;;;;;;;;6.70;99.90;;;;;;8385749;28;20388;-71
2023/11/24 10:19:34;;;;;;;;;;;7.10;99.90;;;;;;8392821;28;19928;-70
2023/11/24 10:23:37;;;;;;;;;;;7.30;99.90;;;;;;8391067;28;19929;-71
2023/11/24 10:27:40;;;;;;;;;;;7.70;99.90;;;;;;8368122;28;19924;-70
2023/11/24 10:31:44;;;;;;;;;;;8.00;99.90;;;;;;8376475;28;19928;-70
2023/11/24 10:35:47;;;;;;;;;;;7.90;99.90;;;;;;8379236;28;19970;-71
2023/11/24 10:39:48;;;;;;;;;;;7.60;99.90;;;;;;8375860;28;19931;-71
2023/11/24 10:43:50;;;;;;;;;;;7.40;99.90;;;;;;8376268;28;19924;-71
2023/11/24 10:48:07;;;;;;;;;;;7.20;99.90;;;;;;8394606;28;19966;-71
2023/11/24 10:52:18;;;;;;;;;;;7.30;99.90;;;;;;8380419;28;19932;-71
2023/11/24 10:56:22;;;;;;;;;;;7.70;99.90;;;;;;8384842;28;20407;-70
2023/11/24 11:00:24;;;;;;;;;;;8.50;99.90;;;;;;8372350;28;20276;-70
2023/11/24 11:04:27;;;;;;;;;;;8.80;99.90;;;;;;8378159;28;19928;-70
2023/11/24 11:08:34;;;;;;;;;;;8.70;99.90;;;;;;8365009;28;20303;-71
2023/11/24 11:12:39;;;;;;;;;;;8.40;99.90;;;;;;8371963;28;19935;-71
2023/11/24 11:16:43;;;;;;;;;;;8.30;99.90;;;;;;8375878;28;19928;-70
2023/11/24 11:20:45;;;;;;;;;;;8.10;99.90;;;;;;8377756;28;19929;-71
2023/11/24 11:24:47;;;;;;;;;;;8.10;99.90;;;;;;8388987;28;19939;-71
2023/11/24 11:28:57;;;;;;;;;;;8.30;99.90;;;;;;8390064;28;20011;-71
2023/11/24 11:33:02;;;;;;;;;;;9.30;99.90;;;;;;8376210;28;19987;-71
2023/11/24 11:37:06;;;;;;;;;;;10.00;99.90;;;;;;8381477;28;19928;-71
2023/11/24 11:41:09;;;;;;;;;;;10.10;99.90;;;;;;8382037;28;19924;-71
2023/11/24 11:45:12;;;;;;;;;;;10.60;99.90;;;;;;8377031;28;19932;-71
2023/11/24 11:49:13;;;;;;;;;;;10.80;99.90;;;;;;8392696;28;19929;-71
2023/11/24 11:53:16;;;;;;;;;;;10.00;99.90;;;;;;8379556;28;19944;-71
2023/11/24 11:57:20;;;;;;;;;;;9.00;99.90;;;;;;8398423;28;20681;-72
2023/11/24 12:01:22;;;;;;;;;;;8.50;99.90;;;;;;8370526;28;20003;-70
2023/11/24 12:05:26;;;;;;;;;;;8.20;99.90;;;;;;8391245;28;19998;-70
2023/11/24 12:09:28;;;;;;;;;;;7.90;99.90;;;;;;8388409;28;20011;-72
2023/11/24 12:13:30;;;;;;;;;;;7.80;99.90;;;;;;8382980;28;19929;-71
2023/11/24 12:17:32;;;;;;;;;;;8.50;99.90;;;;;;8393246;28;19925;-71
2023/11/24 12:21:37;;;;;;;;;;;9.50;99.90;;;;;;8376894;28;20709;-71
2023/11/24 12:25:39;;;;;;;;;;;10.10;99.90;;;;;;8399287;28;19956;-71
2023/11/24 12:29:45;;;;;;;;;;;9.80;99.90;;;;;;8387206;28;20418;-71
2023/11/24 12:33:50;;;;;;;;;;;9.30;99.90;;;;;;8379182;28;19928;-71
2023/11/24 12:37:52;;;;;;;;;;;8.90;99.90;;;;;;8378681;28;19928;-71
2023/11/24 12:41:54;;;;;;;;;;;8.70;99.90;;;;;;8387287;28;19928;-71
2023/11/24 12:45:57;;;;;;;;;;;8.60;99.90;;;;;;8371405;28;20338;-71
2023/11/24 12:50:00;;;;;;;;;;;8.20;99.90;;;;;;8373205;28;19948;-71
2023/11/24 12:54:04;;;;;;;;;;;7.80;99.90;;;;;;8388707;28;19959;-71
2023/11/24 12:58:05;;;;;;;;;;;7.50;99.90;;;;;;8390459;28;19925;-71
2023/11/24 13:02:07;;;;;;;;;;;7.50;99.90;;;;;;8390995;28;19982;-71
2023/11/24 13:06:10;;;;;;;;;;;7.60;99.90;;;;;;8381104;28;19929;-71
2023/11/24 13:10:12;;;;;;;;;;;7.60;99.90;;;;;;8385093;28;19928;-71
2023/11/24 13:14:16;;;;;;;;;;;7.40;99.90;;;;;;8387201;28;19932;-71
2023/11/24 13:18:18;;;;;;;;;;;7.30;99.90;;;;;;8379825;28;19928;-71
2023/11/24 13:22:21;;;;;;;;;;;7.20;99.90;;;;;;8385991;28;19924;-71
2023/11/24 13:26:22;;;;;;;;;;;7.10;99.90;;;;;;8385016;28;20280;-71
2023/11/24 13:30:25;;;;;;;;;;;7.00;99.90;;;;;;8403249;28;19924;-71
2023/11/24 13:34:28;;;;;;;;;;;7.10;99.90;;;;;;8377619;28;19929;-71
2023/11/24 13:38:29;;;;;;;;;;;7.20;99.90;;;;;;8379084;28;20383;-70
2023/11/24 13:42:31;;;;;;;;;;;7.40;99.90;;;;;;8385634;28;20372;-71
2023/11/24 13:46:33;;;;;;;;;;;7.70;99.90;;;;;;8380071;28;19924;-71
2023/11/24 13:50:37;;;;;;;;;;;7.80;99.90;;;;;;8387209;28;20617;-71
2023/11/24 13:54:38;;;;;;;;;;;7.80;99.90;;;;;;8380236;28;19929;-71
2023/11/24 13:58:40;;;;;;;;;;;7.80;99.90;;;;;;8370220;28;20713;-71
2023/11/24 14:02:41;;;;;;;;;;;7.70;99.90;;;;;;8380823;28;19932;-71
2023/11/24 14:06:44;;;;;;;;;;;7.60;99.90;;;;;;8397858;28;19924;-71
2023/11/24 14:10:47;;;;;;;;;;;7.60;99.90;;;;;;8380381;28;19938;-71
2023/11/24 14:14:49;;;;;;;;;;;7.60;99.90;;;;;;8377514;28;20388;-71
2023/11/24 14:18:53;;;;;;;;;;;7.60;99.90;;;;;;8390942;28;19928;-71
2023/11/24 14:22:54;;;;;;;;;;;7.50;99.90;;;;;;8383648;28;19924;-71
2023/11/24 14:26:56;;;;;;;;;;;7.40;99.90;;;;;;8369568;28;19928;-71
2023/11/24 14:30:58;;;;;;;;;;;7.40;99.90;;;;;;8361342;28;20043;-70
2023/11/24 14:35:05;;;;;;;;;;;7.40;99.90;;;;;;8349759;28;20015;-70
2023/11/24 14:39:19;;;;;;;;;;;7.30;99.90;;;;;;8366326;28;19986;-71
2023/11/24 14:43:23;;;;;;;;;;;7.30;99.90;;;;;;8363751;28;20442;-71
2023/11/24 14:47:26;;;;;;;;;;;7.50;99.90;;;;;;8369243;28;19924;-71
2023/11/24 14:51:29;;;;;;;;;;;7.70;99.90;;;;;;8336177;28;19970;-71
2023/11/24 14:55:34;;;;;;;;;;;7.70;99.90;;;;;;8369024;28;19932;-71
2023/11/24 14:59:36;;;;;;;;;;;7.60;99.90;;;;;;8391511;28;19947;-70
2023/11/24 15:03:39;;;;;;;;;;;7.50;99.90;;;;;;8390414;28;20430;-70
2023/11/24 15:07:41;;;;;;;;;;;7.10;99.90;;;;;;8366470;28;19986;-71
2023/11/24 15:11:43;;;;;;;;;;;6.70;99.90;;;;;;8380768;28;20414;-71
2023/11/24 15:15:45;;;;;;;;;;;6.40;99.90;;;;;;8378198;28;19973;-70
2023/11/24 15:19:51;;;;;;;;;;;6.20;99.90;;;;;;8368585;28;20368;-71
2023/11/24 15:23:54;;;;;;;;;;;6.10;99.90;;;;;;8360716;28;19987;-70
2023/11/24 15:27:56;;;;;;;;;;;6.00;99.90;;;;;;8366581;28;20472;-71
2023/11/24 15:31:57;;;;;;;;;;;6.00;99.90;;;;;;8358249;28;20396;-71
2023/11/24 15:36:00;;;;;;;;;;;6.00;99.90;;;;;;8377074;28;19933;-71
2023/11/24 15:40:03;;;;;;;;;;;6.00;99.90;;;;;;8370032;28;19933;-71
2023/11/24 15:44:12;;;;;;;;;;;6.10;99.90;;;;;;8351015;28;19931;-71
2023/11/24 15:48:14;;;;;;;;;;;6.30;99.90;;;;;;8372250;28;19951;-71
2023/11/24 15:52:15;;;;;;;;;;;6.30;99.90;;;;;;8368620;28;20273;-71
2023/11/24 15:56:24;;;;;;;;;;;6.20;99.90;;;;;;8371310;28;20388;-71
2023/11/24 16:00:31;;;;;;;;;;;6.10;99.90;;;;;;8375453;28;19935;-70
2023/11/24 16:04:34;;;;;;;;;;;6.10;99.90;;;;;;8360099;28;20023;-71
2023/11/24 16:08:44;;;;;;;;;;;6.00;99.90;;;;;;8344387;28;19933;-70
2023/11/24 16:12:48;;;;;;;;;;;5.90;99.90;;;;;;8333161;28;19932;-71
2023/11/24 16:16:50;;;;;;;;;;;5.90;99.90;;;;;;8343599;28;19932;-70
2023/11/24 16:20:51;;;;;;;;;;;5.90;99.90;;;;;;8375177;28;19929;-71
2023/11/24 16:24:53;;;;;;;;;;;5.90;99.90;;;;;;8353624;28;20104;-70
2023/11/24 16:28:55;;;;;;;;;;;5.90;99.90;;;;;;8359685;28;19955;-70
2023/11/24 16:32:57;;;;;;;;;;;6.00;99.90;;;;;;8360309;28;20296;-71
2023/11/24 16:36:59;;;;;;;;;;;6.00;99.90;;;;;;8363709;28;19924;-71
2023/11/24 16:41:03;;;;;;;;;;;6.10;99.90;;;;;;8358054;28;19983;-71
2023/11/24 16:45:08;;;;;;;;;;;6.10;99.90;;;;;;8356229;28;20018;-71
2023/11/24 16:49:10;;;;;;;;;;;6.00;99.90;;;;;;8359159;28;20028;-71
2023/11/24 16:53:15;;;;;;;;;;;6.00;99.90;;;;;;8356565;28;19995;-71
2023/11/24 16:57:17;;;;;;;;;;;5.80;99.90;;;;;;8356166;28;19929;-71
2023/11/24 17:01:21;;;;;;;;;;;5.70;99.90;;;;;;8343412;28;19990;-70
2023/11/24 17:05:24;;;;;;;;;;;5.70;99.90;;;;;;8364882;28;20671;-71
2023/11/24 17:09:26;;;;;;;;;;;5.60;99.90;;;;;;8338940;28;19951;-70
2023/11/24 17:13:28;;;;;;;;;;;5.60;99.90;;;;;;8364432;28;19929;-71
2023/11/24 17:17:30;;;;;;;;;;;5.60;99.90;;;;;;8346540;28;19972;-71
2023/11/24 17:21:32;;;;;;;;;;;5.60;99.90;;;;;;8350871;28;19925;-71
2023/11/24 17:25:33;;;;;;;;;;;5.70;99.90;;;;;;8353182;28;19964;-71
2023/11/24 17:29:37;;;;;;;;;;;5.80;99.90;;;;;;8376547;28;19990;-71
2023/11/24 17:33:41;;;;;;;;;;;5.80;99.90;;;;;;8359755;28;19947;-71
2023/11/24 17:37:42;;;;;;;;;;;5.80;99.90;;;;;;8357408;28;19991;-71
2023/11/24 17:41:44;;;;;;;;;;;5.80;99.90;;;;;;8360348;28;20031;-70
2023/11/24 17:45:46;;;;;;;;;;;5.90;99.90;;;;;;8361832;28;20400;-70
2023/11/24 17:49:47;;;;;;;;;;;5.90;99.90;;;;;;8355993;28;19979;-71
2023/11/24 17:53:49;;;;;;;;;;;5.90;99.90;;;;;;8351368;28;19935;-71
2023/11/24 17:57:51;;;;;;;;;;;5.90;99.90;;;;;;8351358;28;19932;-71
2023/11/24 18:01:53;;;;;;;;;;;5.90;99.90;;;;;;8353578;28;19928;-70
2023/11/24 18:05:55;;;;;;;;;;;5.90;99.90;;;;;;8353619;28;19933;-71
2023/11/24 18:09:56;;;;;;;;;;;5.90;99.90;;;;;;8355927;28;20326;-71
2023/11/24 18:13:59;;;;;;;;;;;6.00;99.90;;;;;;8353132;28;19929;-71
2023/11/24 18:18:01;;;;;;;;;;;6.00;99.90;;;;;;8346649;28;20412;-71
2023/11/24 18:22:03;;;;;;;;;;;6.00;99.90;;;;;;8366817;28;19931;-70
2023/11/24 18:26:06;;;;;;;;;;;6.10;99.90;;;;;;8354712;28;19971;-71
2023/11/24 18:30:09;;;;;;;;;;;6.20;99.90;;;;;;8352490;28;19928;-70
2023/11/24 18:34:11;;;;;;;;;;;6.20;99.90;;;;;;8357264;28;19925;-71
2023/11/24 18:38:13;;;;;;;;;;;6.30;99.90;;;;;;8349275;28;19932;-70
2023/11/24 18:42:14;;;;;;;;;;;6.30;99.90;;;;;;8352367;28;19925;-71
2023/11/24 18:46:16;;;;;;;;;;;6.30;99.90;;;;;;8350980;28;19986;-71
2023/11/24 18:50:18;;;;;;;;;;;6.30;99.90;;;;;;8348478;28;19933;-71
2023/11/24 18:54:20;;;;;;;;;;;6.30;99.90;;;;;;8334369;28;19924;-71
2023/11/24 18:58:22;;;;;;;;;;;6.30;99.90;;;;;;8348310;28;19953;-71
2023/11/24 19:02:26;;;;;;;;;;;6.30;99.90;;;;;;8353404;28;19924;-71
2023/11/24 19:06:28;;;;;;;;;;;6.30;99.90;;;;;;8351167;28;19928;-71
2023/11/24 19:10:31;;;;;;;;;;;6.30;99.90;;;;;;8350864;28;20538;-71
2023/11/24 19:14:34;;;;;;;;;;;6.30;99.90;;;;;;8353726;28;20015;-71
2023/11/24 19:18:37;;;;;;;;;;;6.30;99.90;;;;;;8347294;28;20008;-71
2023/11/24 19:22:40;;;;;;;;;;;6.40;99.90;;;;;;8355577;28;19929;-71
2023/11/24 19:26:41;;;;;;;;;;;6.40;99.90;;;;;;8349356;28;19998;-71
2023/11/24 19:30:43;;;;;;;;;;;6.50;99.90;;;;;;8345986;28;19939;-71
2023/11/24 19:34:45;;;;;;;;;;;6.50;99.90;;;;;;8355962;28;19932;-71
2023/11/24 19:38:46;;;;;;;;;;;6.30;99.90;;;;;;8353244;28;19967;-72
2023/11/24 19:42:48;;;;;;;;;;;6.30;99.90;;;;;;8361133;28;21340;-70
2023/11/24 19:46:50;;;;;;;;;;;6.30;99.90;;;;;;8364972;28;20288;-71
2023/11/24 19:50:51;;;;;;;;;;;6.30;99.90;;;;;;8349396;28;20395;-71
2023/11/24 19:54:53;;;;;;;;;;;6.40;99.90;;;;;;8348860;28;19925;-71
2023/11/24 19:58:55;;;;;;;;;;;6.40;99.90;;;;;;8332033;28;19982;-72
2023/11/24 20:02:56;;;;;;;;;;;6.40;99.90;;;;;;8351756;28;19924;-71
2023/11/24 20:06:58;;;;;;;;;;;6.40;99.90;;;;;;8352622;28;19936;-71
2023/11/24 20:11:00;;;;;;;;;;;6.40;99.90;;;;;;8356808;28;19970;-71
2023/11/24 20:15:02;;;;;;;;;;;6.40;99.90;;;;;;8355785;28;19936;-71
2023/11/24 20:19:04;;;;;;;;;;;6.40;99.90;;;;;;8357034;28;19929;-71
2023/11/24 20:23:09;;;;;;;;;;;6.40;99.90;;;;;;8358290;28;19932;-71
2023/11/24 20:27:10;;;;;;;;;;;6.40;99.90;;;;;;8354778;28;20277;-71
2023/11/24 20:31:14;;;;;;;;;;;6.30;99.90;;;;;;8360017;28;19925;-71
2023/11/24 20:35:15;;;;;;;;;;;6.30;99.90;;;;;;8361028;28;20295;-71
2023/11/24 20:39:21;;;;;;;;;;;6.30;99.90;;;;;;8360580;28;20396;-71
2023/11/24 20:43:25;;;;;;;;;;;6.30;99.90;;;;;;8376800;28;19932;-71
2023/11/24 20:47:29;;;;;;;;;;;6.20;99.90;;;;;;8362395;28;19925;-71
2023/11/24 20:51:31;;;;;;;;;;;6.20;99.90;;;;;;8361315;28;19933;-71
2023/11/24 20:55:33;;;;;;;;;;;6.20;99.90;;;;;;8356580;28;19971;-71
2023/11/24 20:59:34;;;;;;;;;;;6.20;99.90;;;;;;8356721;28;20040;-71
2023/11/24 21:03:36;;;;;;;;;;;6.20;99.90;;;;;;8359112;28;19987;-71
2023/11/24 21:07:38;;;;;;;;;;;6.20;99.90;;;;;;8360645;28;19929;-71
2023/11/24 21:11:40;;;;;;;;;;;6.10;99.90;;;;;;8338543;28;19925;-71
2023/11/24 21:15:44;;;;;;;;;;;6.10;99.90;;;;;;8373111;28;19932;-71
2023/11/24 21:19:46;;;;;;;;;;;6.10;99.90;;;;;;8355681;28;19925;-71
2023/11/24 21:23:47;;;;;;;;;;;6.10;99.90;;;;;;8358543;28;19924;-71
2023/11/24 21:27:50;;;;;;;;;;;6.10;99.90;;;;;;8369238;28;20434;-71
2023/11/24 21:31:51;;;;;;;;;;;6.10;99.90;;;;;;8357398;28;19940;-71
2023/11/24 21:35:53;;;;;;;;;;;6.10;99.90;;;;;;8355441;28;19976;-71
2023/11/24 21:40:00;;;;;;;;;;;6.00;99.90;;;;;;8352274;28;20002;-71
2023/11/24 21:44:02;;;;;;;;;;;6.00;99.90;;;;;;8360328;28;19924;-72
2023/11/24 21:48:04;;;;;;;;;;;6.00;99.90;;;;;;8339302;28;19970;-71
2023/11/24 21:52:06;;;;;;;;;;;6.00;99.90;;;;;;8338577;28;19932;-71
2023/11/24 21:56:08;;;;;;;;;;;6.00;99.90;;;;;;8354765;28;20029;-71
2023/11/24 22:00:09;;;;;;;;;;;6.00;99.90;;;;;;8354437;28;20343;-70
2023/11/24 22:04:11;;;;;;;;;;;6.00;99.90;;;;;;8389240;28;19924;-70
2023/11/24 22:08:14;;;;;;;;;;;5.90;99.90;;;;;;8388083;28;20660;-71
2023/11/24 22:12:16;;;;;;;;;;;5.90;99.90;;;;;;8388446;28;19924;-71
2023/11/24 22:16:17;;;;;;;;;;;5.90;99.90;;;;;;8386297;28;19924;-71
2023/11/24 22:20:19;;;;;;;;;;;5.80;99.90;;;;;;8377488;28;20360;-71
2023/11/24 22:24:21;;;;;;;;;;;5.80;99.90;;;;;;8380881;28;20011;-71
2023/11/24 22:28:23;;;;;;;;;;;5.80;99.90;;;;;;8383360;28;19924;-71
2023/11/24 22:32:26;;;;;;;;;;;5.80;99.90;;;;;;8379713;28;20010;-71
2023/11/24 22:36:30;;;;;;;;;;;5.70;99.90;;;;;;8384422;28;20222;-71
2023/11/24 22:40:32;;;;;;;;;;;5.70;99.90;;;;;;8376423;28;19924;-72
2023/11/24 22:44:33;;;;;;;;;;;5.70;99.90;;;;;;8399791;28;20376;-71
2023/11/24 22:48:35;;;;;;;;;;;5.60;99.90;;;;;;8377047;28;19936;-71
2023/11/24 22:52:37;;;;;;;;;;;5.60;99.90;;;;;;8392322;28;19935;-70
2023/11/24 22:56:39;;;;;;;;;;;5.50;99.90;;;;;;8400900;28;20341;-70
2023/11/24 23:00:40;;;;;;;;;;;5.50;99.90;;;;;;8393328;28;19939;-71
2023/11/24 23:04:42;;;;;;;;;;;5.50;99.90;;;;;;8388889;28;19979;-71
2023/11/24 23:08:45;;;;;;;;;;;5.40;99.90;;;;;;8382629;28;19931;-71
2023/11/24 23:12:47;;;;;;;;;;;5.40;99.90;;;;;;8385591;28;20368;-70
2023/11/24 23:16:51;;;;;;;;;;;5.40;99.90;;;;;;8390375;28;19955;-70
2023/11/24 23:20:54;;;;;;;;;;;5.40;99.90;;;;;;8382232;28;19925;-70
2023/11/24 23:24:55;;;;;;;;;;;5.40;99.90;;;;;;8381737;28;19928;-70
2023/11/24 23:28:57;;;;;;;;;;;5.40;99.90;;;;;;8395929;28;20360;-71
2023/11/24 23:32:59;;;;;;;;;;;5.40;99.90;;;;;;8376354;28;19996;-71
2023/11/24 23:37:10;;;;;;;;;;;5.40;99.90;;;;;;8379977;28;19924;-71
2023/11/24 23:41:12;;;;;;;;;;;5.40;99.90;;;;;;8380139;28;19932;-71
2023/11/24 23:45:14;;;;;;;;;;;5.40;99.90;;;;;;8382492;28;19925;-71
2023/11/24 23:49:16;;;;;;;;;;;5.40;99.90;;;;;;8392603;28;20016;-70
2023/11/24 23:53:21;;;;;;;;;;;5.30;99.90;;;;;;8387713;28;19973;-70